createdAt,value
2018-08-27T00:00:52.637Z,997.64
2018-08-27T00:01:52.660Z,997.66
2018-08-27T00:02:52.675Z,997.65
2018-08-27T00:03:52.696Z,997.63
2018-08-27T00:04:52.717Z,997.67
2018-08-27T00:05:52.742Z,997.64
2018-08-27T00:06:52.751Z,997.62
2018-08-27T00:07:52.775Z,997.61
2018-08-27T00:08:52.790Z,997.61
2018-08-27T00:09:52.810Z,997.56
2018-08-27T00:10:52.827Z,997.58
2018-08-27T00:11:52.847Z,997.57
2018-08-27T00:12:52.869Z,997.55
2018-08-27T00:13:52.886Z,997.52
2018-08-27T00:14:52.906Z,997.53
2018-08-27T00:15:52.925Z,997.51
2018-08-27T00:16:52.947Z,997.53
2018-08-27T00:17:52.966Z,997.55
2018-08-27T00:18:52.981Z,997.59
2018-08-27T00:19:53.001Z,997.62
2018-08-27T00:20:53.020Z,997.69
2018-08-27T00:21:53.043Z,997.71
2018-08-27T00:22:53.059Z,997.75
2018-08-27T00:23:53.079Z,997.82
2018-08-27T00:24:53.099Z,997.82
2018-08-27T00:25:53.114Z,997.81
2018-08-27T00:26:53.136Z,997.80
2018-08-27T00:27:53.153Z,997.81
2018-08-27T00:28:53.175Z,997.74
2018-08-27T00:29:53.194Z,997.70
2018-08-27T00:30:53.213Z,997.62
2018-08-27T00:31:53.233Z,997.59
2018-08-27T00:32:53.250Z,997.53
2018-08-27T00:33:53.272Z,997.49
2018-08-27T00:34:53.291Z,997.53
2018-08-27T00:35:53.309Z,997.55
2018-08-27T00:36:53.331Z,997.53
2018-08-27T00:37:53.346Z,997.52
2018-08-27T00:38:53.368Z,997.48
2018-08-27T00:39:53.386Z,997.49
2018-08-27T00:40:53.403Z,997.49
2018-08-27T00:41:53.425Z,997.46
2018-08-27T00:42:53.443Z,997.46
2018-08-27T00:43:53.463Z,997.45
2018-08-27T00:44:53.481Z,997.42
2018-08-27T00:45:53.501Z,997.44
2018-08-27T00:46:53.519Z,997.40
2018-08-27T00:47:53.539Z,997.42
2018-08-27T00:48:53.563Z,997.45
2018-08-27T00:49:53.579Z,997.44
2018-08-27T00:50:53.598Z,997.39
2018-08-27T00:51:53.616Z,997.41
2018-08-27T00:52:53.637Z,997.40
2018-08-27T00:53:53.658Z,997.40
2018-08-27T00:54:53.678Z,997.40
2018-08-27T00:55:53.743Z,997.40
2018-08-27T00:56:53.714Z,997.40
2018-08-27T00:57:53.732Z,997.39
2018-08-27T00:58:53.908Z,997.41
2018-08-27T00:59:53.775Z,997.42
2018-08-27T01:00:53.792Z,997.44
2018-08-27T01:01:53.809Z,997.39
2018-08-27T01:02:53.833Z,997.40
2018-08-27T01:03:53.849Z,997.39
2018-08-27T01:04:53.881Z,997.41
2018-08-27T01:05:53.913Z,997.41
2018-08-27T01:06:53.909Z,997.41
2018-08-27T01:07:53.926Z,997.39
2018-08-27T01:08:53.952Z,997.35
2018-08-27T01:09:53.965Z,997.35
2018-08-27T01:10:53.985Z,997.33
2018-08-27T01:11:54.004Z,997.34
2018-08-27T01:12:54.024Z,997.35
2018-08-27T01:13:54.048Z,997.34
2018-08-27T01:14:54.066Z,997.37
2018-08-27T01:15:54.085Z,997.35
2018-08-27T01:16:54.105Z,997.40
2018-08-27T01:17:54.127Z,997.38
2018-08-27T01:18:54.141Z,997.32
2018-08-27T01:19:54.158Z,997.35
2018-08-27T01:20:54.180Z,997.39
2018-08-27T01:21:54.207Z,997.32
2018-08-27T01:22:54.218Z,997.30
2018-08-27T01:23:54.237Z,997.27
2018-08-27T01:24:54.259Z,997.28
2018-08-27T01:25:54.279Z,997.26
2018-08-27T01:26:54.299Z,997.28
2018-08-27T01:27:54.316Z,997.27
2018-08-27T01:28:54.335Z,997.27
2018-08-27T01:29:54.353Z,997.22
2018-08-27T01:30:54.371Z,997.22
2018-08-27T01:31:54.394Z,997.26
2018-08-27T01:32:54.412Z,997.20
2018-08-27T01:33:54.435Z,997.24
2018-08-27T01:34:54.457Z,997.23
2018-08-27T01:35:54.471Z,997.23
2018-08-27T01:36:54.494Z,997.17
2018-08-27T01:37:54.516Z,997.21
2018-08-27T01:38:54.535Z,997.17
2018-08-27T01:39:54.549Z,997.19
2018-08-27T01:40:54.571Z,997.21
2018-08-27T01:41:54.589Z,997.17
2018-08-27T01:42:54.603Z,997.19
2018-08-27T01:43:54.628Z,997.13
2018-08-27T01:44:54.648Z,997.14
2018-08-27T01:45:54.668Z,997.09
2018-08-27T01:46:54.685Z,997.06
2018-08-27T01:47:54.703Z,997.04
2018-08-27T01:48:54.722Z,997.03
2018-08-27T01:49:54.741Z,997.01
2018-08-27T01:50:54.762Z,997.03
2018-08-27T01:51:54.782Z,997.01
2018-08-27T01:52:54.799Z,996.96
2018-08-27T01:53:54.818Z,996.98
2018-08-27T01:54:54.840Z,996.93
2018-08-27T01:55:54.857Z,996.97
2018-08-27T01:56:54.877Z,996.92
2018-08-27T01:57:54.897Z,996.90
2018-08-27T01:58:54.918Z,996.92
2018-08-27T01:59:54.933Z,996.94
2018-08-27T02:00:54.961Z,996.95
2018-08-27T02:01:54.974Z,996.94
2018-08-27T02:02:54.999Z,996.93
2018-08-27T02:03:55.017Z,996.95
2018-08-27T02:04:55.030Z,996.95
2018-08-27T02:05:55.050Z,996.91
2018-08-27T02:06:55.114Z,996.92
2018-08-27T02:07:55.093Z,996.94
2018-08-27T02:08:55.111Z,996.91
2018-08-27T02:09:55.133Z,996.97
2018-08-27T02:10:55.162Z,996.95
2018-08-27T02:11:55.169Z,996.95
2018-08-27T02:12:55.187Z,996.94
2018-08-27T02:13:55.209Z,996.99
2018-08-27T02:14:55.231Z,997.00
2018-08-27T02:15:55.247Z,996.96
2018-08-27T02:16:55.264Z,996.99
2018-08-27T02:17:55.282Z,997.02
2018-08-27T02:18:55.301Z,997.01
2018-08-27T02:19:55.326Z,997.00
2018-08-27T02:20:55.397Z,997.03
2018-08-27T02:21:55.394Z,997.05
2018-08-27T02:22:55.383Z,997.04
2018-08-27T02:23:55.399Z,997.08
2018-08-27T02:24:55.422Z,996.99
2018-08-27T02:25:55.452Z,997.01
2018-08-27T02:26:55.457Z,997.01
2018-08-27T02:27:55.475Z,997.02
2018-08-27T02:28:55.497Z,997.00
2018-08-27T02:29:55.517Z,996.88
2018-08-27T02:30:55.536Z,996.87
2018-08-27T02:31:55.561Z,996.87
2018-08-27T02:32:55.577Z,996.85
2018-08-27T02:33:55.592Z,996.72
2018-08-27T02:34:55.685Z,996.72
2018-08-27T02:35:55.635Z,996.68
2018-08-27T02:36:55.652Z,996.61
2018-08-27T02:37:55.682Z,996.68
2018-08-27T02:38:55.688Z,996.60
2018-08-27T02:39:55.708Z,996.64
2018-08-27T02:40:55.731Z,996.72
2018-08-27T02:41:55.744Z,996.70
2018-08-27T02:42:55.767Z,996.67
2018-08-27T02:43:55.782Z,996.67
2018-08-27T02:44:55.813Z,996.71
2018-08-27T02:45:55.822Z,996.70
2018-08-27T02:46:55.844Z,996.68
2018-08-27T02:47:55.862Z,996.70
2018-08-27T02:48:55.882Z,996.70
2018-08-27T02:49:55.905Z,996.75
2018-08-27T02:50:55.917Z,996.73
2018-08-27T02:51:55.936Z,996.72
2018-08-27T02:52:55.955Z,996.76
2018-08-27T02:53:55.977Z,996.69
2018-08-27T02:54:55.997Z,996.68
2018-08-27T02:55:56.015Z,996.72
2018-08-27T02:56:56.038Z,996.62
2018-08-27T02:57:56.052Z,996.59
2018-08-27T02:58:56.069Z,996.65
2018-08-27T02:59:56.092Z,996.59
2018-08-27T03:00:56.117Z,996.57
2018-08-27T03:01:56.128Z,996.54
2018-08-27T03:02:56.146Z,996.52
2018-08-27T03:03:56.165Z,996.58
2018-08-27T03:04:56.184Z,996.45
2018-08-27T03:05:56.202Z,996.50
2018-08-27T03:06:56.223Z,996.46
2018-08-27T03:07:56.239Z,996.46
2018-08-27T03:08:56.258Z,996.42
2018-08-27T03:09:56.285Z,996.37
2018-08-27T03:10:56.297Z,996.39
2018-08-27T03:11:56.318Z,996.45
2018-08-27T03:12:56.336Z,996.34
2018-08-27T03:13:56.364Z,996.32
2018-08-27T03:14:56.373Z,996.28
2018-08-27T03:15:56.394Z,996.22
2018-08-27T03:16:56.415Z,996.22
2018-08-27T03:17:56.429Z,996.24
2018-08-27T03:18:56.447Z,996.24
2018-08-27T03:19:56.466Z,996.11
2018-08-27T03:20:56.485Z,996.12
2018-08-27T03:21:56.504Z,996.08
2018-08-27T03:22:56.526Z,996.02
2018-08-27T03:23:56.541Z,996.02
2018-08-27T03:24:56.599Z,995.99
2018-08-27T03:25:56.579Z,996.01
2018-08-27T03:26:56.605Z,996.02
2018-08-27T03:27:56.615Z,996.02
2018-08-27T03:28:56.638Z,995.94
2018-08-27T03:29:56.655Z,995.92
2018-08-27T03:30:56.678Z,995.79
2018-08-27T03:31:56.695Z,995.79
2018-08-27T03:32:56.711Z,995.85
2018-08-27T03:33:56.731Z,995.79
2018-08-27T03:34:56.748Z,995.82
2018-08-27T03:35:56.767Z,995.79
2018-08-27T03:36:56.784Z,995.67
2018-08-27T03:37:56.807Z,995.69
2018-08-27T03:38:56.826Z,995.66
2018-08-27T03:39:56.842Z,995.68
2018-08-27T03:40:56.863Z,995.73
2018-08-27T03:41:56.880Z,995.69
2018-08-27T03:42:56.897Z,995.65
2018-08-27T03:43:56.920Z,995.59
2018-08-27T03:44:56.936Z,995.53
2018-08-27T03:45:56.955Z,995.52
2018-08-27T03:46:56.973Z,995.51
2018-08-27T03:47:56.991Z,995.47
2018-08-27T03:48:57.013Z,995.48
2018-08-27T03:49:57.029Z,995.45
2018-08-27T03:50:57.049Z,995.46
2018-08-27T03:51:57.073Z,995.42
2018-08-27T03:52:57.087Z,995.33
2018-08-27T03:53:57.106Z,995.42
2018-08-27T03:54:57.131Z,995.38
2018-08-27T03:55:57.144Z,995.33
2018-08-27T03:56:57.168Z,995.35
2018-08-27T03:57:57.186Z,995.34
2018-08-27T03:58:57.202Z,995.32
2018-08-27T03:59:57.217Z,995.30
2018-08-27T04:00:57.240Z,995.33
2018-08-27T04:01:57.259Z,995.30
2018-08-27T04:02:57.276Z,995.26
2018-08-27T04:03:57.296Z,995.23
2018-08-27T04:04:57.318Z,995.27
2018-08-27T04:05:57.336Z,995.27
2018-08-27T04:06:57.355Z,995.25
2018-08-27T04:07:57.377Z,995.15
2018-08-27T04:08:57.394Z,995.14
2018-08-27T04:09:57.409Z,995.16
2018-08-27T04:10:57.427Z,995.18
2018-08-27T04:11:57.450Z,995.12
2018-08-27T04:12:57.470Z,995.17
2018-08-27T04:13:57.486Z,995.17
2018-08-27T04:14:57.635Z,995.19
2018-08-27T04:15:57.527Z,995.21
2018-08-27T04:16:57.543Z,995.14
2018-08-27T04:17:57.567Z,995.15
2018-08-27T04:18:57.583Z,995.16
2018-08-27T04:19:57.598Z,995.16
2018-08-27T04:20:57.622Z,995.24
2018-08-27T04:21:57.639Z,995.18
2018-08-27T04:22:57.659Z,995.19
2018-08-27T04:23:57.685Z,995.20
2018-08-27T04:24:57.700Z,995.17
2018-08-27T04:25:57.718Z,995.21
2018-08-27T04:26:57.734Z,995.23
2018-08-27T04:27:57.753Z,995.19
2018-08-27T04:28:57.773Z,995.23
2018-08-27T04:29:57.795Z,995.15
2018-08-27T04:30:57.813Z,995.18
2018-08-27T04:31:57.828Z,995.21
2018-08-27T04:32:57.852Z,995.19
2018-08-27T04:33:57.873Z,995.21
2018-08-27T04:34:57.903Z,995.18
2018-08-27T04:35:57.904Z,995.13
2018-08-27T04:36:57.928Z,995.24
2018-08-27T04:37:57.963Z,995.20
2018-08-27T04:38:57.971Z,995.24
2018-08-27T04:39:57.982Z,995.19
2018-08-27T04:40:58.003Z,995.25
2018-08-27T04:41:58.025Z,995.31
2018-08-27T04:42:58.176Z,995.30
2018-08-27T04:43:58.064Z,995.27
2018-08-27T04:44:58.078Z,995.33
2018-08-27T04:45:58.097Z,995.31
2018-08-27T04:46:58.123Z,995.27
2018-08-27T04:47:58.136Z,995.33
2018-08-27T04:48:58.152Z,995.34
2018-08-27T04:49:58.178Z,995.33
2018-08-27T04:50:58.191Z,995.31
2018-08-27T04:51:58.213Z,995.36
2018-08-27T04:52:58.233Z,995.32
2018-08-27T04:53:58.251Z,995.36
2018-08-27T04:54:58.267Z,995.37
2018-08-27T04:55:58.288Z,995.36
2018-08-27T04:56:58.311Z,995.34
2018-08-27T04:57:58.327Z,995.42
2018-08-27T04:58:58.346Z,995.40
2018-08-27T04:59:58.364Z,995.45
2018-08-27T05:00:58.384Z,995.48
2018-08-27T05:01:58.406Z,995.49
2018-08-27T05:02:58.424Z,995.53
2018-08-27T05:03:58.441Z,995.55
2018-08-27T05:04:58.463Z,995.61
2018-08-27T05:05:58.481Z,995.58
2018-08-27T05:06:58.505Z,995.63
2018-08-27T05:07:58.550Z,995.56
2018-08-27T05:08:58.536Z,995.63
2018-08-27T05:09:58.559Z,995.60
2018-08-27T05:10:58.574Z,995.60
2018-08-27T05:11:58.593Z,995.64
2018-08-27T05:12:58.617Z,995.58
2018-08-27T05:13:58.632Z,995.57
2018-08-27T05:14:58.649Z,995.57
2018-08-27T05:15:58.669Z,995.55
2018-08-27T05:16:58.689Z,995.56
2018-08-27T05:17:58.717Z,995.60
2018-08-27T05:18:58.780Z,995.58
2018-08-27T05:19:58.745Z,995.59
2018-08-27T05:20:58.766Z,995.56
2018-08-27T05:21:58.785Z,995.58
2018-08-27T05:22:58.807Z,995.57
2018-08-27T05:23:58.823Z,995.60
2018-08-27T05:24:58.841Z,995.55
2018-08-27T05:25:58.860Z,995.59
2018-08-27T05:26:58.878Z,995.55
2018-08-27T05:27:58.900Z,995.55
2018-08-27T05:28:58.918Z,995.52
2018-08-27T05:29:58.938Z,995.55
2018-08-27T05:30:59.020Z,995.57
2018-08-27T05:31:58.975Z,995.51
2018-08-27T05:32:58.999Z,995.57
2018-08-27T05:33:59.015Z,995.53
2018-08-27T05:34:59.034Z,995.57
2018-08-27T05:35:59.052Z,995.61
2018-08-27T05:36:59.070Z,995.59
2018-08-27T05:37:59.140Z,995.61
2018-08-27T05:38:59.106Z,995.62
2018-08-27T05:39:59.128Z,995.61
2018-08-27T05:40:59.147Z,995.58
2018-08-27T05:41:59.169Z,995.59
2018-08-27T05:42:59.187Z,995.56
2018-08-27T05:43:59.204Z,995.57
2018-08-27T05:44:59.227Z,995.62
2018-08-27T05:45:59.246Z,995.60
2018-08-27T05:46:59.264Z,995.64
2018-08-27T05:47:59.281Z,995.62
2018-08-27T05:48:59.299Z,995.65
2018-08-27T05:49:59.319Z,995.62
2018-08-27T05:50:59.339Z,995.65
2018-08-27T05:51:59.508Z,995.63
2018-08-27T05:52:59.378Z,995.63
2018-08-27T05:53:59.400Z,995.63
2018-08-27T05:54:59.418Z,995.64
2018-08-27T05:55:59.440Z,995.66
2018-08-27T05:56:59.454Z,995.65
2018-08-27T05:57:59.486Z,995.68
2018-08-27T05:58:59.491Z,995.64
2018-08-27T05:59:59.513Z,995.72
2018-08-27T06:00:59.529Z,995.66
2018-08-27T06:01:59.600Z,995.68
2018-08-27T06:02:59.568Z,995.69
2018-08-27T06:03:59.589Z,995.67
2018-08-27T06:04:59.611Z,995.69
2018-08-27T06:05:59.626Z,995.70
2018-08-27T06:06:59.643Z,995.80
2018-08-27T06:07:59.662Z,995.72
2018-08-27T06:08:59.737Z,995.79
2018-08-27T06:09:59.705Z,995.77
2018-08-27T06:10:59.740Z,995.85
2018-08-27T06:11:59.740Z,995.85
2018-08-27T06:12:59.761Z,995.78
2018-08-27T06:13:59.777Z,995.78
2018-08-27T06:14:59.796Z,995.79
2018-08-27T06:15:59.823Z,995.79
2018-08-27T06:16:59.888Z,995.71
2018-08-27T06:17:59.873Z,995.72
2018-08-27T06:18:59.876Z,995.66
2018-08-27T06:19:59.892Z,995.70
2018-08-27T06:20:59.914Z,995.75
2018-08-27T06:21:59.973Z,995.75
2018-08-27T06:22:59.952Z,995.71
2018-08-27T06:23:59.976Z,995.73
2018-08-27T06:24:59.996Z,995.77
2018-08-27T06:26:00.013Z,995.73
2018-08-27T06:27:00.029Z,995.72
2018-08-27T06:28:00.048Z,995.77
2018-08-27T06:29:00.075Z,995.78
2018-08-27T06:30:00.089Z,995.73
2018-08-27T06:31:00.105Z,995.75
2018-08-27T06:32:00.124Z,995.82
2018-08-27T06:33:00.142Z,995.77
2018-08-27T06:34:00.163Z,995.77
2018-08-27T06:35:00.203Z,995.81
2018-08-27T06:36:00.202Z,995.80
2018-08-27T06:37:00.219Z,995.76
2018-08-27T06:38:00.279Z,995.76
2018-08-27T06:39:00.260Z,995.75
2018-08-27T06:40:00.276Z,995.74
2018-08-27T06:41:00.295Z,995.74
2018-08-27T06:42:00.319Z,995.72
2018-08-27T06:43:00.334Z,995.70
2018-08-27T06:44:00.355Z,995.69
2018-08-27T06:45:00.373Z,995.68
2018-08-27T06:46:00.392Z,995.68
2018-08-27T06:47:00.412Z,995.68
2018-08-27T06:48:00.428Z,995.64
2018-08-27T06:49:00.448Z,995.65
2018-08-27T06:50:00.468Z,995.66
2018-08-27T06:51:00.488Z,995.66
2018-08-27T06:52:00.504Z,995.67
2018-08-27T06:53:00.524Z,995.73
2018-08-27T06:54:00.551Z,995.65
2018-08-27T06:55:00.562Z,995.68
2018-08-27T06:56:00.583Z,995.72
2018-08-27T06:57:00.601Z,995.73
2018-08-27T06:58:00.619Z,995.70
2018-08-27T06:59:00.640Z,995.66
2018-08-27T07:00:00.655Z,995.68
2018-08-27T07:01:00.675Z,995.71
2018-08-27T07:02:00.699Z,995.71
2018-08-27T07:03:00.714Z,995.69
2018-08-27T07:04:00.732Z,995.68
2018-08-27T07:05:00.752Z,995.68
2018-08-27T07:06:00.772Z,995.72
2018-08-27T07:07:00.791Z,995.69
2018-08-27T07:08:00.810Z,995.75
2018-08-27T07:09:00.829Z,995.73
2018-08-27T07:10:00.847Z,995.81
2018-08-27T07:11:00.867Z,995.77
2018-08-27T07:12:00.885Z,995.82
2018-08-27T07:13:00.907Z,995.84
2018-08-27T07:14:00.924Z,995.84
2018-08-27T07:15:00.947Z,995.84
2018-08-27T07:16:00.964Z,995.88
2018-08-27T07:17:00.982Z,995.87
2018-08-27T07:18:01.001Z,995.91
2018-08-27T07:19:01.032Z,995.84
2018-08-27T07:20:01.050Z,995.85
2018-08-27T07:21:01.063Z,995.88
2018-08-27T07:22:01.078Z,995.91
2018-08-27T07:23:01.097Z,995.90
2018-08-27T07:24:01.116Z,995.87
2018-08-27T07:25:01.137Z,995.90
2018-08-27T07:26:01.153Z,995.88
2018-08-27T07:27:01.176Z,995.93
2018-08-27T07:28:01.196Z,995.94
2018-08-27T07:29:01.217Z,995.96
2018-08-27T07:30:01.232Z,996.00
2018-08-27T07:31:01.253Z,995.91
2018-08-27T07:32:01.273Z,995.88
2018-08-27T07:33:01.291Z,995.92
2018-08-27T07:34:01.311Z,995.92
2018-08-27T07:35:01.327Z,995.97
2018-08-27T07:36:01.380Z,995.95
2018-08-27T07:37:01.370Z,996.02
2018-08-27T07:38:01.385Z,995.99
2018-08-27T07:39:01.407Z,996.02
2018-08-27T07:40:01.427Z,996.02
2018-08-27T07:41:01.443Z,995.99
2018-08-27T07:42:01.462Z,996.00
2018-08-27T07:43:01.481Z,995.98
2018-08-27T07:44:01.504Z,996.03
2018-08-27T07:45:01.519Z,996.03
2018-08-27T07:46:01.539Z,996.04
2018-08-27T07:47:01.560Z,996.06
2018-08-27T07:48:01.578Z,996.01
2018-08-27T07:49:01.601Z,996.04
2018-08-27T07:50:01.616Z,996.01
2018-08-27T07:51:01.690Z,996.04
2018-08-27T07:52:01.678Z,996.09
2018-08-27T07:53:01.677Z,996.05
2018-08-27T07:54:01.698Z,996.05
2018-08-27T07:55:01.713Z,996.09
2018-08-27T07:56:01.731Z,996.06
2018-08-27T07:57:01.756Z,996.04
2018-08-27T07:58:01.773Z,996.05
2018-08-27T07:59:01.790Z,996.07
2018-08-27T08:00:01.808Z,996.07
2018-08-27T08:01:01.829Z,996.11
2018-08-27T08:02:01.848Z,996.09
2018-08-27T08:03:01.867Z,996.12
2018-08-27T08:04:01.889Z,996.15
2018-08-27T08:05:01.905Z,996.11
2018-08-27T08:06:01.926Z,996.13
2018-08-27T08:07:01.945Z,996.12
2018-08-27T08:08:01.983Z,996.13
2018-08-27T08:09:01.988Z,996.16
2018-08-27T08:10:02.006Z,996.18
2018-08-27T08:11:02.024Z,996.19
2018-08-27T08:12:02.039Z,996.15
2018-08-27T08:13:02.063Z,996.21
2018-08-27T08:14:02.081Z,996.18
2018-08-27T08:15:02.102Z,996.17
2018-08-27T08:16:02.124Z,996.17
2018-08-27T08:17:02.155Z,996.19
2018-08-27T08:18:02.169Z,996.20
2018-08-27T08:19:02.179Z,996.21
2018-08-27T08:20:02.198Z,996.21
2018-08-27T08:21:02.217Z,996.20
2018-08-27T08:22:02.236Z,996.25
2018-08-27T08:23:02.260Z,996.20
2018-08-27T08:24:02.276Z,996.22
2018-08-27T08:25:02.299Z,996.16
2018-08-27T08:26:02.316Z,996.20
2018-08-27T08:27:02.334Z,996.20
2018-08-27T08:28:02.354Z,996.18
2018-08-27T08:29:02.374Z,996.19
2018-08-27T08:30:02.395Z,996.18
2018-08-27T08:31:02.412Z,996.19
2018-08-27T08:32:02.430Z,996.20
2018-08-27T08:33:02.479Z,996.21
2018-08-27T08:34:02.472Z,996.23
2018-08-27T08:35:02.493Z,996.24
2018-08-27T08:36:02.508Z,996.22
2018-08-27T08:37:02.530Z,996.20
2018-08-27T08:38:02.550Z,996.27
2018-08-27T08:39:02.571Z,996.27
2018-08-27T08:40:02.702Z,996.27
2018-08-27T08:41:02.609Z,996.31
2018-08-27T08:42:02.629Z,996.27
2018-08-27T08:43:02.645Z,996.29
2018-08-27T08:44:02.667Z,996.29
2018-08-27T08:45:02.685Z,996.30
2018-08-27T08:46:02.705Z,996.29
2018-08-27T08:47:02.722Z,996.29
2018-08-27T08:48:02.744Z,996.27
2018-08-27T08:49:02.762Z,996.28
2018-08-27T08:50:02.781Z,996.30
2018-08-27T08:51:02.802Z,996.26
2018-08-27T08:52:02.822Z,996.31
2018-08-27T08:53:02.840Z,996.29
2018-08-27T08:54:02.859Z,996.33
2018-08-27T08:55:02.879Z,996.26
2018-08-27T08:56:02.900Z,996.33
2018-08-27T08:57:02.918Z,996.33
2018-08-27T08:58:02.940Z,996.30
2018-08-27T08:59:02.959Z,996.27
2018-08-27T09:00:02.979Z,996.30
2018-08-27T09:01:03.007Z,996.30
2018-08-27T09:02:03.015Z,996.30
2018-08-27T09:03:03.035Z,996.28
2018-08-27T09:04:03.057Z,996.27
2018-08-27T09:05:03.077Z,996.28
2018-08-27T09:06:03.100Z,996.30
2018-08-27T09:07:03.116Z,996.29
2018-08-27T09:08:03.157Z,996.29
2018-08-27T09:09:03.209Z,996.26
2018-08-27T09:10:03.174Z,996.23
2018-08-27T09:11:03.195Z,996.24
2018-08-27T09:12:03.212Z,996.27
2018-08-27T09:13:03.236Z,996.27
2018-08-27T09:14:03.256Z,996.30
2018-08-27T09:15:03.273Z,996.27
2018-08-27T09:16:03.291Z,996.22
2018-08-27T09:17:03.323Z,996.29
2018-08-27T09:18:03.336Z,996.29
2018-08-27T09:19:03.353Z,996.32
2018-08-27T09:20:03.372Z,996.30
2018-08-27T09:21:03.393Z,996.31
2018-08-27T09:22:03.412Z,996.32
2018-08-27T09:23:03.432Z,996.35
2018-08-27T09:24:03.452Z,996.39
2018-08-27T09:25:03.471Z,996.37
2018-08-27T09:26:03.505Z,996.34
2018-08-27T09:27:03.514Z,996.33
2018-08-27T09:28:03.530Z,996.34
2018-08-27T09:29:03.552Z,996.38
2018-08-27T09:30:03.571Z,996.41
2018-08-27T09:31:03.590Z,996.37
2018-08-27T09:32:03.609Z,996.39
2018-08-27T09:33:03.638Z,996.39
2018-08-27T09:34:03.652Z,996.37
2018-08-27T09:35:03.671Z,996.40
2018-08-27T09:36:03.692Z,996.37
2018-08-27T09:37:03.781Z,996.40
2018-08-27T09:38:03.733Z,996.36
2018-08-27T09:39:03.751Z,996.41
2018-08-27T09:40:03.772Z,996.42
2018-08-27T09:41:03.790Z,996.40
2018-08-27T09:42:03.810Z,996.39
2018-08-27T09:43:03.832Z,996.44
2018-08-27T09:44:03.853Z,996.42
2018-08-27T09:45:03.873Z,996.43
2018-08-27T09:46:04.064Z,996.41
2018-08-27T09:47:03.913Z,996.34
2018-08-27T09:48:03.935Z,996.35
2018-08-27T09:49:03.954Z,996.37
2018-08-27T09:50:03.982Z,996.42
2018-08-27T09:51:03.994Z,996.40
2018-08-27T09:52:04.029Z,996.45
2018-08-27T09:53:04.245Z,996.42
2018-08-27T09:54:04.057Z,996.50
2018-08-27T09:55:04.077Z,996.47
2018-08-27T09:56:04.097Z,996.45
2018-08-27T09:57:04.116Z,996.44
2018-08-27T09:58:04.137Z,996.41
2018-08-27T09:59:04.176Z,996.55
2018-08-27T10:00:04.188Z,996.45
2018-08-27T10:01:04.202Z,996.44
2018-08-27T10:02:04.220Z,996.44
2018-08-27T10:03:04.242Z,996.47
2018-08-27T10:04:04.262Z,996.43
2018-08-27T10:05:04.284Z,996.41
2018-08-27T10:06:04.305Z,996.37
2018-08-27T10:07:04.323Z,996.36
2018-08-27T10:08:04.348Z,996.37
2018-08-27T10:09:04.433Z,996.39
2018-08-27T10:10:04.408Z,996.37
2018-08-27T10:11:04.412Z,996.49
2018-08-27T10:12:04.436Z,996.49
2018-08-27T10:13:04.451Z,996.52
2018-08-27T10:14:04.476Z,996.53
2018-08-27T10:15:04.555Z,996.54
2018-08-27T10:16:04.519Z,996.51
2018-08-27T10:17:04.539Z,996.63
2018-08-27T10:18:04.560Z,996.57
2018-08-27T10:19:04.589Z,996.55
2018-08-27T10:20:04.599Z,996.61
2018-08-27T10:21:04.623Z,996.77
2018-08-27T10:22:04.684Z,996.54
2018-08-27T10:23:04.665Z,996.52
2018-08-27T10:24:04.687Z,996.45
2018-08-27T10:25:04.709Z,996.45
2018-08-27T10:26:04.732Z,996.50
2018-08-27T10:27:04.752Z,996.50
2018-08-27T10:28:04.773Z,996.51
2018-08-27T10:29:04.806Z,996.53
2018-08-27T10:30:04.817Z,996.50
2018-08-27T10:31:04.841Z,996.46
2018-08-27T10:32:04.862Z,996.46
2018-08-27T10:33:04.887Z,996.44
2018-08-27T10:34:04.905Z,996.49
2018-08-27T10:35:04.923Z,996.50
2018-08-27T10:36:04.946Z,996.47
2018-08-27T10:37:05.028Z,996.50
2018-08-27T10:38:04.990Z,996.49
2018-08-27T10:39:05.012Z,996.49
2018-08-27T10:40:05.031Z,996.47
2018-08-27T10:41:05.053Z,996.52
2018-08-27T10:42:05.076Z,996.52
2018-08-27T10:43:05.103Z,996.52
2018-08-27T10:44:05.117Z,996.57
2018-08-27T10:45:05.144Z,996.60
2018-08-27T10:46:05.163Z,996.52
2018-08-27T10:47:05.179Z,996.50
2018-08-27T10:48:05.201Z,996.53
2018-08-27T10:49:05.225Z,996.45
2018-08-27T10:50:05.274Z,996.47
2018-08-27T10:51:05.406Z,996.50
2018-08-27T10:52:05.288Z,996.51
2018-08-27T10:53:05.316Z,996.52
2018-08-27T10:54:05.330Z,996.59
2018-08-27T10:55:05.352Z,996.53
2018-08-27T10:56:05.372Z,996.56
2018-08-27T10:57:05.402Z,996.54
2018-08-27T10:58:05.416Z,996.59
2018-08-27T10:59:05.438Z,996.58
2018-08-27T11:00:05.464Z,996.58
2018-08-27T11:01:05.478Z,996.61
2018-08-27T11:02:05.500Z,996.57
2018-08-27T11:03:05.521Z,996.50
2018-08-27T11:04:05.548Z,996.52
2018-08-27T11:05:05.598Z,996.48
2018-08-27T11:06:05.586Z,996.50
2018-08-27T11:07:05.603Z,996.51
2018-08-27T11:08:05.629Z,996.53
2018-08-27T11:09:05.648Z,996.55
2018-08-27T11:10:05.675Z,996.56
2018-08-27T11:11:05.690Z,996.56
2018-08-27T11:12:05.711Z,996.57
2018-08-27T11:13:05.732Z,996.57
2018-08-27T11:14:05.764Z,996.54
2018-08-27T11:15:05.776Z,996.58
2018-08-27T11:16:05.832Z,996.55
2018-08-27T11:17:05.816Z,996.60
2018-08-27T11:18:05.838Z,996.64
2018-08-27T11:19:05.862Z,996.71
2018-08-27T11:20:05.972Z,996.74
2018-08-27T11:21:05.895Z,996.80
2018-08-27T11:22:05.951Z,996.78
2018-08-27T11:23:05.944Z,996.82
2018-08-27T11:24:05.963Z,996.87
2018-08-27T11:25:05.980Z,996.93
2018-08-27T11:26:06.001Z,996.94
2018-08-27T11:27:06.030Z,996.95
2018-08-27T11:28:06.047Z,996.96
2018-08-27T11:29:06.081Z,997.02
2018-08-27T11:30:06.087Z,997.10
2018-08-27T11:31:06.104Z,997.11
2018-08-27T11:32:06.127Z,997.12
2018-08-27T11:33:06.157Z,997.14
2018-08-27T11:34:06.168Z,997.13
2018-08-27T11:35:06.193Z,997.14
2018-08-27T11:36:06.216Z,997.22
2018-08-27T11:37:06.236Z,997.26
2018-08-27T11:38:06.259Z,997.19
2018-08-27T11:39:06.272Z,997.20
2018-08-27T11:40:06.293Z,997.21
2018-08-27T11:41:06.314Z,997.25
2018-08-27T11:42:06.339Z,997.25
2018-08-27T11:43:06.358Z,997.32
2018-08-27T11:44:06.379Z,997.43
2018-08-27T11:45:06.404Z,997.35
2018-08-27T11:46:06.418Z,997.43
2018-08-27T11:47:06.440Z,997.46
2018-08-27T11:48:06.462Z,997.43
2018-08-27T11:49:06.485Z,997.54
2018-08-27T11:50:06.527Z,997.62
2018-08-27T11:51:06.552Z,997.60
2018-08-27T11:52:06.552Z,997.54
2018-08-27T11:53:06.565Z,997.63
2018-08-27T11:54:06.586Z,997.55
2018-08-27T11:55:06.695Z,997.55
2018-08-27T11:56:06.629Z,997.61
2018-08-27T11:57:06.651Z,997.60
2018-08-27T11:58:06.670Z,997.68
2018-08-27T11:59:06.698Z,997.69
2018-08-27T12:00:06.712Z,997.66
2018-08-27T12:01:06.752Z,997.61
2018-08-27T12:02:06.781Z,997.56
2018-08-27T12:03:06.777Z,997.67
2018-08-27T12:04:06.798Z,997.78
2018-08-27T12:05:06.819Z,997.83
2018-08-27T12:06:06.843Z,997.85
2018-08-27T12:07:06.905Z,997.83
2018-08-27T12:08:06.886Z,997.77
2018-08-27T12:09:06.913Z,997.78
2018-08-27T12:10:06.929Z,997.69
2018-08-27T12:11:06.951Z,997.63
2018-08-27T12:12:06.971Z,997.59
2018-08-27T12:13:06.993Z,997.56
2018-08-27T12:14:07.019Z,997.43
2018-08-27T12:15:07.035Z,997.39
2018-08-27T12:16:07.060Z,997.35
2018-08-27T12:17:07.082Z,997.35
2018-08-27T12:18:07.112Z,997.28
2018-08-27T12:19:07.125Z,997.32
2018-08-27T12:20:07.146Z,997.32
2018-08-27T12:21:07.167Z,997.30
2018-08-27T12:22:07.192Z,997.28
2018-08-27T12:23:07.214Z,997.28
2018-08-27T12:24:07.242Z,997.31
2018-08-27T12:25:07.257Z,997.34
2018-08-27T12:26:07.280Z,997.23
2018-08-27T12:27:07.301Z,997.27
2018-08-27T12:28:07.322Z,997.30
2018-08-27T12:29:07.343Z,997.39